Flight Track Log - Related Links

Times and Time Zones

All times are in EDT time to prevent confusion due to time zone crossing. See the N603RF flight status page for this flight to view local times or setup timezone preferences in your user account.

Time Position Orientation Groundspeed Altitude Reporting Facility
EDT Latitude Longitude Course Direction KTS MPH feet Rate Location/Type
Fri 08:14:48 PM 42.8561 -73.8789 332° Northwest 241 277 6,700  Level Boston Center
Fri 08:15:58 PM 42.8842 -73.9617 295° West 247 284 9,200 2,427 Climbing Boston Center
Fri 08:16:59 PM 42.9158 -74.0789 290° West 277 319 12,000 2,459 Climbing Boston Center
Fri 08:18:00 PM 42.8439 -74.1533 217° Southwest 268 308 14,200 2,033 Climbing Boston Center
Fri 08:19:00 PM 42.7586 -74.1425 175° South 296 341 16,100 1,950 Climbing Boston Center
Fri 08:20:00 PM 42.6506 -74.1253 173° South 342 394 18,100 2,034 Climbing Boston Center
Fri 08:20:58 PM 42.5486 -74.1086 173° South 363 418 20,100 2,017 Climbing Boston Center
Fri 08:21:59 PM 42.4425 -74.0917 173° South 369 425 22,100 1,736 Climbing Boston Center
Fri 08:22:59 PM 42.3367 -74.0719 172° South 381 438 23,600 1,438 Climbing Boston Center
Fri 08:24:00 PM 42.2264 -74.0522 172° South 393 452 25,000 1,388 Climbing Boston Center
Fri 08:25:00 PM 42.1100 -74.0325 173° South 407 468 26,400 1,373 Climbing Boston Center
Fri 08:25:58 PM 41.9914 -74.0100 172° South 422 486 27,700 1,120 Climbing Boston Center
Fri 08:27:30 PM 41.8156 -73.9772 172° South 427 491 29,200 1,105 Climbing New York Center
Fri 08:28:30 PM 41.6892 -73.9544 172° South 447 514 30,500 1,339 Climbing New York Center
Fri 08:29:31 PM 41.5506 -73.9283 172° South 460 529 31,900 744 Climbing New York Center
Fri 08:30:31 PM 41.4178 -73.9056 173° South 472 543 32,000 50 Climbing New York Center
Fri 08:31:31 PM 41.2831 -73.8828 173° South 485 558 32,000  Level New York Center
Fri 08:32:32 PM 41.1483 -73.8628 174° South 495 570 32,000  Level New York Center
Fri 08:33:32 PM 41.0114 -73.8372 172° South 495 570 32,000  Level New York Center
Fri 08:34:32 PM 40.8761 -73.8367 180° South 500 575 32,000  Level New York Center
Fri 08:35:32 PM 40.7594 -73.9108 206° Southwest 469 540 32,000  Level New York Center
Fri 08:36:32 PM 40.6550 -74.0017 213° Southwest 455 524 32,000  Level New York Center
Fri 08:37:32 PM 40.5483 -74.0894 212° Southwest 455 524 32,000  Level New York Center
Fri 08:38:30 PM 40.4417 -74.1797 213° Southwest 461 531 32,000  Level New York Center
Fri 08:39:30 PM 40.3369 -74.2697 213° Southwest 461 531 32,000  Level New York Center
Fri 08:40:31 PM 40.2514 -74.3361 211° Southwest 461 531 32,000  Level New York Center
Fri 08:42:31 PM 40.0336 -74.5158 212° Southwest 444 511 32,000  Level Washington Center
Fri 08:43:32 PM 39.9281 -74.6011 212° Southwest 444 511 32,000  Level Washington Center
Fri 08:44:30 PM 39.8225 -74.6864 212° Southwest 451 519 32,000  Level Washington Center
Fri 08:45:30 PM 39.7150 -74.7714 211° Southwest 451 519 32,000  Level Washington Center
Fri 08:46:31 PM 39.6114 -74.8589 213° Southwest 451 519 32,000 -639 Level Washington Center
Fri 08:47:32 PM 39.5097 -74.9433 213° Southwest 451 519 30,700 -1,361 Descending Washington Center
Fri 08:48:30 PM 39.4039 -75.0303 212° Southwest 451 519 29,300 -1,750 Descending Washington Center
Fri 08:49:32 PM 39.3125 -75.1222 218° Southwest 441 507 27,200 -2,100 Descending Washington Center
Fri 08:50:30 PM 39.2317 -75.2217 224° Southwest 423 487 25,100 -2,136 Descending Washington Center
Fri 08:51:30 PM 39.1547 -75.3214 225° Southwest 402 463 23,000 -1,550 Descending Washington Center
Fri 08:52:30 PM 39.0778 -75.4178 224° Southwest 389 448 22,000 -496 Descending Washington Center
Fri 08:53:31 PM 39.0028 -75.5089 223° Southwest 384 442 22,000  Level Washington Center
Fri 08:54:32 PM 38.9258 -75.6050 224° Southwest 384 442 22,000  Level Washington Center
Fri 08:55:30 PM 38.8508 -75.6956 223° Southwest 384 442 22,000  Level Washington Center
Fri 08:56:31 PM 38.7756 -75.7914 225° Southwest 384 442 22,000  Level Washington Center
Fri 08:57:31 PM 38.6983 -75.8894 225° Southwest 384 442 22,000 -347 Level Washington Center
Fri 08:58:32 PM 38.6208 -75.9822 223° Southwest 384 442 21,300 -1,513 Descending Washington Center
Fri 08:59:30 PM 38.5475 -76.0669 222° Southwest 378 435 19,000 -2,269 Descending Washington Center
Fri 09:00:31 PM 38.4783 -76.1567 225° Southwest 366 421 16,800 -1,500 Descending Washington Center
Fri 09:01:30 PM 38.4050 -76.2461 224° Southwest 349 402 16,000 -403 Descending Washington Center
Fri 09:02:30 PM 38.3356 -76.3303 224° Southwest 344 396 16,000  Level Washington Center
Fri 09:03:31 PM 38.2747 -76.3983 221° Southwest 344 396 16,000  Level Washington Center
Fri 09:04:31 PM 38.2053 -76.4794 223° Southwest 344 396 16,000 -150 Level Washington Center
Fri 09:05:31 PM 38.1400 -76.5633 225° Southwest 339 390 15,700 -1,041 Descending Washington Center
Fri 09:06:32 PM 38.0747 -76.6389 222° Southwest 334 384 13,900 -1,664 Descending Washington Center
Fri 09:07:30 PM 38.0178 -76.7225 229° Southwest 328 377 12,400 -1,525 Descending Washington Center
Fri 09:08:30 PM 37.9689 -76.8086 234° Southwest 317 365 10,900 -1,623 Descending Washington Center
Fri 09:09:32 PM 37.9158 -76.8947 232° Southwest 293 337 9,100 -1,574 Descending Washington Center
Fri 09:10:32 PM 37.8692 -76.9675 231° Southwest 285 328 7,700 -1,424 Descending Washington Center
Fri 09:11:30 PM 37.8267 -77.0403 234° Southwest 268 308 6,300 -1,513 Descending Washington Center
Fri 09:12:31 PM 37.7861 -77.1081 233° Southwest 262 302 4,700 -1,140 Descending Washington Center
Fri 09:13:31 PM 37.7500 -77.1650 231° Southwest 241 277 4,000 -585 Descending Washington Center
Fri 09:15:56 PM 37.6833 -77.2667 230° Southwest 177 204 2,700 -768 Descending Potomac TRACON
Fri 09:17:02 PM 37.6333 -77.2833 195° South 171 197 1,300 -843 Descending Potomac TRACON
Fri 09:17:57 PM 37.6000 -77.3000 202° Southwest 148 170 1,000 -209 Descending Potomac TRACON
Fri 09:18:57 PM 37.5500 -77.3167 195° South 142 163 900 -350 Descending Potomac TRACON
Fri 09:19:57 PM 37.5167 -77.3167 180° South 126 145 300 -600 Descending Potomac TRACON
Fri 09:21:00 PM 37.5000 -77.3167 227° Southwest  Level FlightAware Approximate
Fri 09:28:00 PM 37.5052 -77.3197 227° Southwest  Level Estimated
Fri 09:29:00 PM 37.5000 -77.3167 227° Southwest  Level FlightAware Approximate
Fri 09:30:00 PM 37.5052 -77.3197 227° Southwest  Level Estimated
Fri 09:31:00 PM 37.5000 -77.3167 227° Southwest  Level FlightAware Approximate

Login

Don't have an account? Register now (free) for customized features, flight alerts, and more!